createdAt,value
2023-08-02T00:00:28.793Z,99486.63
2023-08-02T00:01:00.623Z,99487.31
2023-08-02T00:01:32.478Z,99486.31
2023-08-02T00:02:04.554Z,99488.13
2023-08-02T00:02:36.448Z,99489.94
2023-08-02T00:03:08.496Z,99493.56
2023-08-02T00:03:40.414Z,99500.50
2023-08-02T00:04:12.395Z,99496.72
2023-08-02T00:04:44.275Z,99498.03
2023-08-02T00:05:16.167Z,99500.50
2023-08-02T00:05:55.854Z,99494.22
2023-08-02T00:06:29.044Z,99488.78
2023-08-02T00:07:02.490Z,99493.25
2023-08-02T00:07:34.325Z,99489.13
2023-08-02T00:08:06.221Z,99494.06
2023-08-02T00:08:38.065Z,99494.22
2023-08-02T00:09:09.892Z,99499.84
2023-08-02T00:09:41.702Z,99514.69
2023-08-02T00:10:13.508Z,99513.69
2023-08-02T00:10:45.331Z,99518.16
2023-08-02T00:11:18.509Z,99521.94
2023-08-02T00:11:52.234Z,99520.13
2023-08-02T00:12:24.158Z,99528.88
2023-08-02T00:12:55.942Z,99527.06
2023-08-02T00:13:27.760Z,99530.53
2023-08-02T00:13:59.569Z,99528.72
2023-08-02T00:14:31.436Z,99529.03
2023-08-02T00:15:03.436Z,99530.03
2023-08-02T00:15:39.487Z,99529.88
2023-08-02T00:16:11.874Z,99528.22
2023-08-02T00:16:43.982Z,99529.34
2023-08-02T00:17:16.124Z,99527.38
2023-08-02T00:17:48.795Z,99534.59
2023-08-02T00:18:20.767Z,99530.03
2023-08-02T00:18:52.587Z,99533.78
2023-08-02T00:19:24.500Z,99532.13
2023-08-02T00:19:56.332Z,99539.38
2023-08-02T00:20:28.198Z,99541.19
2023-08-02T00:21:00.055Z,99538.03
2023-08-02T00:21:31.873Z,99534.38
2023-08-02T00:22:03.801Z,99544.66
2023-08-02T00:22:35.650Z,99538.41
2023-08-02T00:23:07.843Z,99538.41
2023-08-02T00:23:39.683Z,99539.38
2023-08-02T00:24:11.636Z,99540.88
2023-08-02T00:24:43.487Z,99536.41
2023-08-02T00:25:15.332Z,99543.50
2023-08-02T00:25:47.150Z,99541.03
2023-08-02T00:26:18.959Z,99542.94
2023-08-02T00:26:50.872Z,99534.19
2023-08-02T00:27:22.698Z,99536.84
2023-08-02T00:27:54.584Z,99537.66
2023-08-02T00:28:26.407Z,99539.31
2023-08-02T00:28:58.219Z,99529.06
2023-08-02T00:29:30.040Z,99535.31
2023-08-02T00:30:01.873Z,99537.97
2023-08-02T00:30:43.497Z,99537.13
2023-08-02T00:31:15.404Z,99528.53
2023-08-02T00:31:47.231Z,99532.00
2023-08-02T00:32:19.627Z,99539.94
2023-08-02T00:32:51.615Z,99532.13
2023-08-02T00:33:23.533Z,99530.34
2023-08-02T00:33:55.353Z,99526.31
2023-08-02T00:34:28.149Z,99531.59
2023-08-02T00:34:59.962Z,99534.25
2023-08-02T00:35:31.780Z,99530.78
2023-08-02T00:36:03.689Z,99527.16
2023-08-02T00:36:35.544Z,99527.16
2023-08-02T00:37:07.611Z,99522.69
2023-08-02T00:37:39.458Z,99526.03
2023-08-02T00:38:12.090Z,99528.53
2023-08-02T00:38:44.045Z,99529.66
2023-08-02T00:39:15.846Z,99527.03
2023-08-02T00:39:51.462Z,99527.97
2023-08-02T00:40:26.320Z,99530.78
2023-08-02T00:41:06.697Z,99524.38
2023-08-02T00:41:38.541Z,99526.31
2023-08-02T00:42:10.338Z,99526.31
2023-08-02T00:42:42.728Z,99531.59
2023-08-02T00:43:14.555Z,99527.16
2023-08-02T00:43:48.339Z,99525.50
2023-08-02T00:44:20.173Z,99516.59
2023-08-02T00:44:52.038Z,99525.34
2023-08-02T00:45:24.192Z,99516.25
2023-08-02T00:45:57.244Z,99524.28
2023-08-02T00:46:29.404Z,99528.91
2023-08-02T00:47:01.380Z,99517.81
2023-08-02T00:47:34.456Z,99523.22
2023-08-02T00:48:06.838Z,99518.94
2023-08-02T00:48:39.588Z,99520.09
2023-08-02T00:49:11.803Z,99520.25
2023-08-02T00:49:46.744Z,99514.28
2023-08-02T00:50:22.621Z,99512.50
2023-08-02T00:50:55.726Z,99512.63
2023-08-02T00:51:31.701Z,99517.88
2023-08-02T00:52:04.100Z,99513.91
2023-08-02T00:52:36.320Z,99512.25
2023-08-02T00:53:08.463Z,99516.56
2023-08-02T00:53:40.323Z,99521.81
2023-08-02T00:54:12.197Z,99527.25
2023-08-02T00:54:44.009Z,99522.09
2023-08-02T00:55:15.844Z,99528.84
2023-08-02T00:55:47.635Z,99525.22
2023-08-02T00:56:19.453Z,99533.41
2023-08-02T00:56:51.665Z,99533.28
2023-08-02T00:57:23.495Z,99535.22
2023-08-02T00:57:55.339Z,99531.63
2023-08-02T00:58:27.164Z,99542.19
2023-08-02T00:58:59.892Z,99538.84
2023-08-02T00:59:31.779Z,99540.50
2023-08-02T01:00:04.417Z,99538.69
2023-08-02T01:00:36.228Z,99538.69
2023-08-02T01:01:08.889Z,99538.56
2023-08-02T01:01:40.948Z,99538.56
2023-08-02T01:02:12.888Z,99537.56
2023-08-02T01:02:44.791Z,99546.16
2023-08-02T01:03:16.781Z,99542.69
2023-08-02T01:03:49.096Z,99545.19
2023-08-02T01:04:21.320Z,99543.38
2023-08-02T01:04:53.165Z,99542.38
2023-08-02T01:05:30.572Z,99540.44
2023-08-02T01:06:14.331Z,99551.00
2023-08-02T01:07:11.657Z,99544.91
2023-08-02T01:07:50.210Z,99548.50
2023-08-02T01:08:33.006Z,99552.66
2023-08-02T01:09:34.395Z,99559.03
2023-08-02T01:10:11.009Z,99550.47
2023-08-02T01:10:58.682Z,99557.84
2023-08-02T01:11:42.955Z,99553.41
2023-08-02T01:12:16.571Z,99548.13
2023-08-02T01:12:52.092Z,99543.97
2023-08-02T01:13:26.848Z,99546.59
2023-08-02T01:13:59.858Z,99543.84
2023-08-02T01:14:43.180Z,99541.88
2023-08-02T01:15:16.541Z,99548.81
2023-08-02T01:15:49.800Z,99543.13
2023-08-02T01:16:24.648Z,99539.66
2023-08-02T01:17:05.369Z,99539.66
2023-08-02T01:17:38.747Z,99539.66
2023-08-02T01:18:11.278Z,99539.66
2023-08-02T01:18:43.208Z,99536.22
2023-08-02T01:19:20.401Z,99541.31
2023-08-02T01:19:52.544Z,99542.84
2023-08-02T01:20:24.531Z,99544.81
2023-08-02T01:20:56.378Z,99544.81
2023-08-02T01:21:28.200Z,99549.25
2023-08-02T01:22:00.431Z,99541.47
2023-08-02T01:22:32.276Z,99539.00
2023-08-02T01:23:04.153Z,99545.78
2023-08-02T01:23:36.034Z,99538.84
2023-08-02T01:24:09.195Z,99540.50
2023-08-02T01:24:41.001Z,99544.94
2023-08-02T01:25:13.765Z,99541.63
2023-08-02T01:25:48.803Z,99545.41
2023-08-02T01:26:22.135Z,99548.88
2023-08-02T01:26:55.993Z,99542.63
2023-08-02T01:27:42.695Z,99538.16
2023-08-02T01:28:23.204Z,99541.13
2023-08-02T01:28:57.001Z,99543.88
2023-08-02T01:29:31.487Z,99535.16
2023-08-02T01:30:06.737Z,99541.13
2023-08-02T01:30:39.881Z,99540.28
2023-08-02T01:31:16.717Z,99541.13
2023-08-02T01:31:50.240Z,99547.50
2023-08-02T01:32:24.629Z,99543.88
2023-08-02T01:32:57.643Z,99548.22
2023-08-02T01:33:35.017Z,99545.69
2023-08-02T01:34:07.668Z,99549.97
2023-08-02T01:34:41.290Z,99547.34
2023-08-02T01:35:14.724Z,99545.84
2023-08-02T01:35:47.049Z,99549.97
2023-08-02T01:36:19.435Z,99548.22
2023-08-02T01:36:51.717Z,99548.06
2023-08-02T01:37:23.713Z,99542.78
2023-08-02T01:37:55.619Z,99547.22
2023-08-02T01:38:27.478Z,99546.41
2023-08-02T01:38:59.320Z,99543.06
2023-08-02T01:39:31.124Z,99547.34
2023-08-02T01:40:04.419Z,99544.72
2023-08-02T01:40:36.314Z,99547.34
2023-08-02T01:41:08.126Z,99538.91
2023-08-02T01:41:39.951Z,99549.47
2023-08-02T01:42:12.631Z,99548.63
2023-08-02T01:42:44.472Z,99546.69
2023-08-02T01:43:16.384Z,99553.59
2023-08-02T01:43:48.264Z,99543.88
2023-08-02T01:44:20.093Z,99540.41
2023-08-02T01:44:51.913Z,99550.84
2023-08-02T01:45:23.752Z,99546.69
2023-08-02T01:45:55.650Z,99552.25
2023-08-02T01:46:27.480Z,99551.28
2023-08-02T01:46:59.452Z,99546.69
2023-08-02T01:47:31.311Z,99545.69
2023-08-02T01:48:03.195Z,99553.59
2023-08-02T01:48:35.030Z,99546.69
2023-08-02T01:49:06.840Z,99543.22
2023-08-02T01:49:38.635Z,99547.13
2023-08-02T01:50:10.625Z,99545.19
2023-08-02T01:50:42.477Z,99552.78
2023-08-02T01:51:14.349Z,99546.53
2023-08-02T01:51:46.166Z,99545.03
2023-08-02T01:52:17.990Z,99549.47
2023-08-02T01:52:50.549Z,99543.38
2023-08-02T01:53:22.469Z,99545.03
2023-08-02T01:53:54.299Z,99543.81
2023-08-02T01:54:26.111Z,99544.63
2023-08-02T01:54:57.917Z,99542.81
2023-08-02T01:55:29.769Z,99539.66
2023-08-02T01:56:01.604Z,99543.44
2023-08-02T01:56:33.442Z,99544.53
2023-08-02T01:57:05.233Z,99538.75
2023-08-02T01:57:37.050Z,99541.53
2023-08-02T01:58:08.875Z,99540.72
2023-08-02T01:58:40.707Z,99549.56
2023-08-02T01:59:13.406Z,99542.50
2023-08-02T01:59:45.265Z,99550.41
2023-08-02T02:00:17.128Z,99544.47
2023-08-02T02:00:48.982Z,99553.03
2023-08-02T02:01:20.922Z,99548.91
2023-08-02T02:01:52.768Z,99547.56
2023-08-02T02:02:24.660Z,99542.13
2023-08-02T02:02:58.524Z,99558.22
2023-08-02T02:03:30.619Z,99554.63
2023-08-02T02:04:02.496Z,99544.78
2023-08-02T02:04:34.317Z,99548.22
2023-08-02T02:05:06.811Z,99544.09
2023-08-02T02:05:38.634Z,99558.38
2023-08-02T02:06:10.512Z,99552.28
2023-08-02T02:06:42.629Z,99550.63
2023-08-02T02:07:14.729Z,99552.44
2023-08-02T02:07:46.545Z,99550.22
2023-08-02T02:08:18.362Z,99555.13
2023-08-02T02:08:50.447Z,99557.75
2023-08-02T02:09:22.454Z,99556.09
2023-08-02T02:09:54.272Z,99556.38
2023-08-02T02:10:26.105Z,99554.41
2023-08-02T02:10:57.938Z,99551.41
2023-08-02T02:11:29.756Z,99560.28
2023-08-02T02:12:01.592Z,99553.09
2023-08-02T02:12:33.425Z,99555.84
2023-08-02T02:13:05.293Z,99555.16
2023-08-02T02:13:37.223Z,99546.28
2023-08-02T02:14:10.298Z,99560.00
2023-08-02T02:14:42.094Z,99548.91
2023-08-02T02:15:13.918Z,99548.91
2023-08-02T02:15:45.903Z,99558.63
2023-08-02T02:16:17.779Z,99559.75
2023-08-02T02:16:49.620Z,99562.25
2023-08-02T02:17:21.485Z,99561.13
2023-08-02T02:17:53.320Z,99557.53
2023-08-02T02:18:25.180Z,99555.56
2023-08-02T02:18:56.991Z,99551.81
2023-08-02T02:19:28.816Z,99555.28
2023-08-02T02:20:00.636Z,99553.47
2023-08-02T02:20:32.464Z,99554.28
2023-08-02T02:21:04.264Z,99547.38
2023-08-02T02:21:36.072Z,99554.44
2023-08-02T02:22:07.961Z,99552.78
2023-08-02T02:22:40.156Z,99552.25
2023-08-02T02:23:11.980Z,99552.25
2023-08-02T02:23:43.901Z,99557.66
2023-08-02T02:24:15.804Z,99554.19
2023-08-02T02:24:47.685Z,99552.78
2023-08-02T02:25:19.511Z,99552.78
2023-08-02T02:25:51.327Z,99548.34
2023-08-02T02:26:24.423Z,99546.38
2023-08-02T02:26:56.243Z,99551.97
2023-08-02T02:27:28.119Z,99556.25
2023-08-02T02:27:59.986Z,99564.00
2023-08-02T02:28:31.814Z,99565.81
2023-08-02T02:29:03.628Z,99563.06
2023-08-02T02:29:35.440Z,99565.56
2023-08-02T02:30:07.882Z,99570.84
2023-08-02T02:30:42.475Z,99566.41
2023-08-02T02:31:14.295Z,99562.94
2023-08-02T02:31:46.211Z,99570.09
2023-08-02T02:32:19.059Z,99568.44
2023-08-02T02:32:51.012Z,99575.00
2023-08-02T02:33:22.833Z,99569.56
2023-08-02T02:33:54.669Z,99562.50
2023-08-02T02:34:26.487Z,99570.09
2023-08-02T02:34:58.305Z,99573.88
2023-08-02T02:35:30.138Z,99574.69
2023-08-02T02:36:01.995Z,99579.97
2023-08-02T02:36:33.824Z,99576.66
2023-08-02T02:37:05.993Z,99573.34
2023-08-02T02:37:37.816Z,99571.38
2023-08-02T02:38:09.633Z,99581.09
2023-08-02T02:38:41.454Z,99578.59
2023-08-02T02:39:13.426Z,99575.97
2023-08-02T02:39:45.248Z,99575.97
2023-08-02T02:40:17.083Z,99578.47
2023-08-02T02:40:48.900Z,99582.06
2023-08-02T02:41:20.733Z,99581.38
2023-08-02T02:41:52.551Z,99581.81
2023-08-02T02:42:24.451Z,99592.19
2023-08-02T02:42:56.263Z,99582.50
2023-08-02T02:43:28.094Z,99584.16
2023-08-02T02:43:59.906Z,99587.47
2023-08-02T02:44:49.623Z,99590.91
2023-08-02T02:45:21.447Z,99592.88
2023-08-02T02:45:53.843Z,99588.44
2023-08-02T02:46:26.996Z,99588.28
2023-08-02T02:46:58.870Z,99588.28
2023-08-02T02:47:30.738Z,99587.09
2023-08-02T02:48:03.158Z,99597.31
2023-08-02T02:48:35.119Z,99600.25
2023-08-02T02:49:06.961Z,99602.06
2023-08-02T02:49:38.832Z,99597.47
2023-08-02T02:50:10.804Z,99602.75
2023-08-02T02:50:42.616Z,99598.28
2023-08-02T02:51:14.436Z,99604.25
2023-08-02T02:51:46.316Z,99602.06
2023-08-02T02:52:18.184Z,99604.81
2023-08-02T02:52:49.994Z,99599.53
2023-08-02T02:53:24.134Z,99605.94
2023-08-02T02:53:56.000Z,99600.97
2023-08-02T02:54:27.845Z,99604.69
2023-08-02T02:54:59.890Z,99605.53
2023-08-02T02:55:31.757Z,99603.03
2023-08-02T02:56:03.714Z,99603.88
2023-08-02T02:56:35.504Z,99602.06
2023-08-02T02:57:07.538Z,99607.63
2023-08-02T02:57:39.367Z,99606.13
2023-08-02T02:58:11.232Z,99610.41
2023-08-02T02:58:43.191Z,99614.84
2023-08-02T02:59:15.014Z,99615.84
2023-08-02T02:59:46.920Z,99615.84
2023-08-02T03:00:18.777Z,99617.75
2023-08-02T03:00:50.809Z,99618.47
2023-08-02T03:01:22.769Z,99623.59
2023-08-02T03:01:54.639Z,99627.88
2023-08-02T03:02:26.561Z,99619.97
2023-08-02T03:02:58.540Z,99625.09
2023-08-02T03:03:30.355Z,99623.44
2023-08-02T03:04:02.145Z,99614.03
2023-08-02T03:04:33.967Z,99623.59
2023-08-02T03:05:06.180Z,99623.59
2023-08-02T03:05:41.026Z,99617.75
2023-08-02T03:06:13.015Z,99619.72
2023-08-02T03:06:45.152Z,99618.06
2023-08-02T03:07:17.341Z,99613.47
2023-08-02T03:07:49.198Z,99618.59
2023-08-02T03:08:21.368Z,99621.22
2023-08-02T03:08:53.196Z,99621.38
2023-08-02T03:09:25.021Z,99617.06
2023-08-02T03:09:57.084Z,99619.84
2023-08-02T03:10:28.925Z,99623.31
2023-08-02T03:11:00.748Z,99623.47
2023-08-02T03:11:32.558Z,99628.59
2023-08-02T03:12:04.622Z,99632.03
2023-08-02T03:12:36.550Z,99628.59
2023-08-02T03:13:08.398Z,99634.00
2023-08-02T03:13:40.772Z,99633.84
2023-08-02T03:14:13.120Z,99632.19
2023-08-02T03:14:44.959Z,99634.25
2023-08-02T03:15:16.776Z,99627.50
2023-08-02T03:15:49.611Z,99629.28
2023-08-02T03:16:21.472Z,99633.44
2023-08-02T03:16:53.423Z,99630.81
2023-08-02T03:17:25.307Z,99638.56
2023-08-02T03:17:57.235Z,99638.56
2023-08-02T03:18:29.073Z,99635.81
2023-08-02T03:19:00.909Z,99631.63
2023-08-02T03:19:32.711Z,99633.72
2023-08-02T03:20:04.744Z,99629.69
2023-08-02T03:20:39.676Z,99630.53
2023-08-02T03:21:11.723Z,99634.00
2023-08-02T03:21:44.828Z,99637.44
2023-08-02T03:22:16.654Z,99636.63
2023-08-02T03:22:48.483Z,99636.63
2023-08-02T03:23:20.713Z,99636.78
2023-08-02T03:23:52.544Z,99644.53
2023-08-02T03:24:24.372Z,99641.88
2023-08-02T03:24:56.238Z,99640.22
2023-08-02T03:25:28.108Z,99637.59
2023-08-02T03:25:59.918Z,99633.31
2023-08-02T03:26:31.947Z,99633.31
2023-08-02T03:27:03.796Z,99643.84
2023-08-02T03:27:35.679Z,99633.59
2023-08-02T03:28:07.612Z,99640.69
2023-08-02T03:28:39.424Z,99639.84
2023-08-02T03:29:11.256Z,99639.13
2023-08-02T03:29:43.053Z,99639.44
2023-08-02T03:30:14.858Z,99645.66
2023-08-02T03:30:47.884Z,99639.56
2023-08-02T03:31:19.764Z,99637.06
2023-08-02T03:31:51.646Z,99628.06
2023-08-02T03:32:23.683Z,99639.69
2023-08-02T03:32:55.606Z,99638.03
2023-08-02T03:33:27.477Z,99631.41
2023-08-02T03:33:59.341Z,99626.81
2023-08-02T03:34:31.185Z,99629.44
2023-08-02T03:35:03.051Z,99627.22
2023-08-02T03:35:34.880Z,99631.13
2023-08-02T03:36:07.069Z,99632.63
2023-08-02T03:36:39.101Z,99629.84
2023-08-02T03:37:11.073Z,99639.56
2023-08-02T03:37:42.894Z,99638.59
2023-08-02T03:38:14.741Z,99628.09
2023-08-02T03:38:46.597Z,99638.59
2023-08-02T03:39:18.401Z,99635.00
2023-08-02T03:39:50.246Z,99640.53
2023-08-02T03:40:22.076Z,99633.91
2023-08-02T03:40:54.422Z,99633.75
2023-08-02T03:41:26.277Z,99631.13
2023-08-02T03:41:58.269Z,99635.56
2023-08-02T03:42:30.102Z,99637.22
2023-08-02T03:43:01.938Z,99633.47
2023-08-02T03:43:33.759Z,99629.16
2023-08-02T03:44:05.557Z,99630.00
2023-08-02T03:44:37.377Z,99634.44
2023-08-02T03:45:09.479Z,99634.28
2023-08-02T03:45:41.324Z,99632.50
2023-08-02T03:46:13.289Z,99633.59
2023-08-02T03:46:45.700Z,99632.78
2023-08-02T03:47:18.565Z,99631.81
2023-08-02T03:47:50.491Z,99633.59
2023-08-02T03:48:22.440Z,99637.75
2023-08-02T03:48:54.263Z,99632.63
2023-08-02T03:49:26.089Z,99631.66
2023-08-02T03:49:57.923Z,99628.91
2023-08-02T03:50:29.897Z,99631.41
2023-08-02T03:51:02.294Z,99628.75
2023-08-02T03:51:34.132Z,99633.06
2023-08-02T03:52:06.350Z,99632.06
2023-08-02T03:52:38.196Z,99631.41
2023-08-02T03:53:10.729Z,99627.94
2023-08-02T03:53:42.557Z,99630.56
2023-08-02T03:54:14.661Z,99629.03
2023-08-02T03:54:46.529Z,99626.28
2023-08-02T03:55:18.377Z,99624.75
2023-08-02T03:55:50.222Z,99633.34
2023-08-02T03:56:22.085Z,99629.75
2023-08-02T03:56:54.070Z,99629.75
2023-08-02T03:57:25.924Z,99631.53
2023-08-02T03:57:57.824Z,99630.72
2023-08-02T03:58:29.990Z,99632.50
2023-08-02T03:59:01.822Z,99629.03
2023-08-02T03:59:33.736Z,99630.81
2023-08-02T04:00:06.547Z,99631.41
2023-08-02T04:00:38.427Z,99629.44
2023-08-02T04:01:10.249Z,99629.31
2023-08-02T04:01:42.106Z,99632.06
2023-08-02T04:02:13.980Z,99629.44
2023-08-02T04:02:45.885Z,99638.31
2023-08-02T04:03:17.776Z,99638.31
2023-08-02T04:03:49.649Z,99635.84
2023-08-02T04:04:22.711Z,99635.00
2023-08-02T04:04:54.819Z,99636.91
2023-08-02T04:05:26.637Z,99635.25
2023-08-02T04:05:58.486Z,99639.16
2023-08-02T04:06:30.408Z,99640.81
2023-08-02T04:07:02.311Z,99641.50
2023-08-02T04:07:34.106Z,99649.13
2023-08-02T04:08:06.094Z,99649.13
2023-08-02T04:08:37.973Z,99644.81
2023-08-02T04:09:09.780Z,99651.88
2023-08-02T04:09:41.665Z,99646.50
2023-08-02T04:10:13.488Z,99645.53
2023-08-02T04:10:45.333Z,99650.78
2023-08-02T04:11:17.189Z,99648.84
2023-08-02T04:11:49.024Z,99646.22
2023-08-02T04:12:20.941Z,99645.25
2023-08-02T04:12:53.054Z,99646.91
2023-08-02T04:13:24.879Z,99643.59
2023-08-02T04:13:56.692Z,99639.28
2023-08-02T04:14:28.575Z,99643.88
2023-08-02T04:15:00.429Z,99646.38
2023-08-02T04:15:36.111Z,99645.25
2023-08-02T04:16:08.048Z,99645.53
2023-08-02T04:16:40.047Z,99642.06
2023-08-02T04:17:12.280Z,99647.19
2023-08-02T04:17:44.296Z,99654.41
2023-08-02T04:18:16.165Z,99654.41
2023-08-02T04:18:47.991Z,99648.03
2023-08-02T04:19:19.825Z,99652.31
2023-08-02T04:19:51.648Z,99655.78
2023-08-02T04:20:23.464Z,99660.06
2023-08-02T04:20:55.301Z,99647.72
2023-08-02T04:21:27.167Z,99656.34
2023-08-02T04:21:58.986Z,99650.22
2023-08-02T04:22:31.955Z,99651.19
2023-08-02T04:23:03.771Z,99658.81
2023-08-02T04:23:35.594Z,99656.06
2023-08-02T04:24:07.419Z,99662.31
2023-08-02T04:24:39.343Z,99661.31
2023-08-02T04:25:11.173Z,99663.81
2023-08-02T04:25:42.980Z,99660.22
2023-08-02T04:26:14.809Z,99666.31
2023-08-02T04:26:46.676Z,99666.31
2023-08-02T04:27:18.502Z,99661.03
2023-08-02T04:27:50.335Z,99670.44
2023-08-02T04:28:22.201Z,99660.47
2023-08-02T04:28:54.027Z,99663.81
2023-08-02T04:29:25.874Z,99660.34
2023-08-02T04:29:57.748Z,99661.72
2023-08-02T04:30:29.576Z,99654.66
2023-08-02T04:31:01.413Z,99654.66
2023-08-02T04:31:33.386Z,99655.34
2023-08-02T04:32:05.941Z,99651.59
2023-08-02T04:32:37.912Z,99651.59
2023-08-02T04:33:09.841Z,99647.88
2023-08-02T04:33:41.690Z,99653.81
2023-08-02T04:34:13.701Z,99656.31
2023-08-02T04:34:45.518Z,99640.66
2023-08-02T04:35:17.556Z,99644.94
2023-08-02T04:35:49.386Z,99647.72
2023-08-02T04:36:21.203Z,99647.16
2023-08-02T04:36:53.798Z,99647.88
2023-08-02T04:37:25.638Z,99650.22
2023-08-02T04:37:57.457Z,99648.41
2023-08-02T04:38:29.288Z,99650.88
2023-08-02T04:39:03.726Z,99653.53
2023-08-02T04:39:35.543Z,99650.78
2023-08-02T04:40:07.988Z,99652.28
2023-08-02T04:40:40.094Z,99650.47
2023-08-02T04:41:18.027Z,99646.03
2023-08-02T04:41:55.096Z,99646.56
2023-08-02T04:42:27.362Z,99645.63
2023-08-02T04:42:59.185Z,99645.47
2023-08-02T04:43:31.056Z,99645.47
2023-08-02T04:44:02.893Z,99652.41
2023-08-02T04:44:34.699Z,99650.44
2023-08-02T04:45:07.217Z,99647.97
2023-08-02T04:45:39.050Z,99646.16
2023-08-02T04:46:10.909Z,99649.47
2023-08-02T04:46:43.006Z,99655.72
2023-08-02T04:47:15.052Z,99654.47
2023-08-02T04:47:46.910Z,99652.66
2023-08-02T04:48:18.737Z,99657.66
2023-08-02T04:48:51.117Z,99651.53
2023-08-02T04:49:22.947Z,99656.81
2023-08-02T04:49:57.918Z,99646.13
2023-08-02T04:50:32.900Z,99653.91
2023-08-02T04:51:11.302Z,99648.66
2023-08-02T04:51:43.151Z,99652.94
2023-08-02T04:52:14.967Z,99656.25
2023-08-02T04:52:46.810Z,99649.31
2023-08-02T04:53:18.603Z,99655.94
2023-08-02T04:53:50.433Z,99653.19
2023-08-02T04:54:22.249Z,99655.69
2023-08-02T04:54:54.054Z,99659.00
2023-08-02T04:55:25.899Z,99659.00
2023-08-02T04:55:57.695Z,99653.72
2023-08-02T04:56:29.505Z,99647.47
2023-08-02T04:57:01.324Z,99654.31
2023-08-02T04:57:33.161Z,99661.09
2023-08-02T04:58:05.038Z,99655.16
2023-08-02T04:58:37.216Z,99655.16
2023-08-02T04:59:09.058Z,99656.50
2023-08-02T04:59:40.873Z,99650.97
2023-08-02T05:00:13.048Z,99650.97
2023-08-02T05:00:47.218Z,99656.25
2023-08-02T05:01:19.294Z,99651.25
2023-08-02T05:01:51.181Z,99649.88
2023-08-02T05:02:27.213Z,99651.53
2023-08-02T05:02:59.245Z,99648.75
2023-08-02T05:03:31.086Z,99646.78
2023-08-02T05:04:03.246Z,99647.63
2023-08-02T05:04:35.114Z,99646.66
2023-08-02T05:05:07.405Z,99652.75
2023-08-02T05:05:39.229Z,99651.81
2023-08-02T05:06:11.143Z,99651.81
2023-08-02T05:06:44.050Z,99653.47
2023-08-02T05:07:15.905Z,99649.84
2023-08-02T05:07:47.769Z,99656.63
2023-08-02T05:08:19.609Z,99655.53
2023-08-02T05:08:51.423Z,99653.72
2023-08-02T05:09:23.271Z,99652.75
2023-08-02T05:09:55.088Z,99657.84
2023-08-02T05:10:26.878Z,99657.72
2023-08-02T05:10:58.923Z,99652.28
2023-08-02T05:11:30.843Z,99658.94
2023-08-02T05:12:02.647Z,99658.78
2023-08-02T05:12:35.601Z,99646.44
2023-08-02T05:13:07.450Z,99648.91
2023-08-02T05:13:39.271Z,99647.00
2023-08-02T05:14:11.099Z,99661.00
2023-08-02T05:14:42.903Z,99651.97
2023-08-02T05:15:14.713Z,99655.97
2023-08-02T05:15:46.567Z,99658.63
2023-08-02T05:16:18.479Z,99656.66
2023-08-02T05:16:50.404Z,99653.88
2023-08-02T05:17:22.261Z,99659.81
2023-08-02T05:17:54.100Z,99656.34
2023-08-02T05:18:25.998Z,99660.53
2023-08-02T05:18:57.837Z,99657.44
2023-08-02T05:19:29.660Z,99661.06
2023-08-02T05:20:01.510Z,99656.44
2023-08-02T05:20:33.984Z,99658.81
2023-08-02T05:21:13.499Z,99651.72
2023-08-02T05:21:45.345Z,99657.00
2023-08-02T05:22:17.189Z,99654.53
2023-08-02T05:22:50.483Z,99661.59
2023-08-02T05:23:22.390Z,99654.53
2023-08-02T05:23:54.757Z,99662.13
2023-08-02T05:24:26.774Z,99650.44
2023-08-02T05:24:59.335Z,99654.63
2023-08-02T05:25:32.684Z,99657.94
2023-08-02T05:26:06.420Z,99660.41
2023-08-02T05:26:39.206Z,99660.13
2023-08-02T05:27:11.020Z,99665.25
2023-08-02T05:27:43.221Z,99666.22
2023-08-02T05:28:15.062Z,99663.44
2023-08-02T05:28:46.901Z,99659.66
2023-08-02T05:29:18.725Z,99668.25
2023-08-02T05:29:52.911Z,99662.84
2023-08-02T05:30:24.741Z,99672.28
2023-08-02T05:30:56.565Z,99666.84
2023-08-02T05:31:28.423Z,99671.44
2023-08-02T05:32:00.340Z,99671.13
2023-08-02T05:32:32.397Z,99663.94
2023-08-02T05:33:04.677Z,99659.47
2023-08-02T05:33:36.541Z,99665.28
2023-08-02T05:34:08.431Z,99669.41
2023-08-02T05:34:40.233Z,99663.19
2023-08-02T05:35:12.117Z,99666.66
2023-08-02T05:35:43.949Z,99660.22
2023-08-02T05:36:17.053Z,99656.63
2023-08-02T05:36:48.901Z,99660.06
2023-08-02T05:37:21.571Z,99658.09
2023-08-02T05:37:54.268Z,99660.50
2023-08-02T05:38:26.171Z,99659.69
2023-08-02T05:38:57.991Z,99659.53
2023-08-02T05:39:29.811Z,99657.72
2023-08-02T05:40:01.676Z,99659.34
2023-08-02T05:40:33.603Z,99661.03
2023-08-02T05:41:05.537Z,99663.38
2023-08-02T05:41:37.401Z,99666.69
2023-08-02T05:42:09.238Z,99662.41
2023-08-02T05:42:41.053Z,99667.34
2023-08-02T05:43:12.915Z,99661.41
2023-08-02T05:43:46.021Z,99667.34
2023-08-02T05:44:17.928Z,99670.69
2023-08-02T05:44:49.750Z,99666.25
2023-08-02T05:45:21.587Z,99670.38
2023-08-02T05:45:54.477Z,99669.41
2023-08-02T05:46:26.365Z,99668.41
2023-08-02T05:46:58.305Z,99667.31
2023-08-02T05:47:31.306Z,99668.97
2023-08-02T05:48:03.212Z,99664.50
2023-08-02T05:48:35.075Z,99666.16
2023-08-02T05:49:06.912Z,99668.50
2023-08-02T05:49:38.714Z,99661.72
2023-08-02T05:50:10.702Z,99669.47
2023-08-02T05:50:42.506Z,99671.13
2023-08-02T05:51:14.341Z,99675.44
2023-08-02T05:51:46.152Z,99673.50
2023-08-02T05:52:17.961Z,99670.69
2023-08-02T05:52:49.788Z,99674.00
2023-08-02T05:53:21.737Z,99674.81
2023-08-02T05:53:53.587Z,99681.09
2023-08-02T05:54:25.408Z,99680.25
2023-08-02T05:54:57.243Z,99681.09
2023-08-02T05:55:29.054Z,99686.09
2023-08-02T05:56:00.891Z,99686.09
2023-08-02T05:56:32.765Z,99685.78
2023-08-02T05:57:04.843Z,99689.41
2023-08-02T05:57:36.658Z,99686.59
2023-08-02T05:58:08.518Z,99690.06
2023-08-02T05:58:40.367Z,99689.91
2023-08-02T05:59:12.194Z,99687.28
2023-08-02T05:59:44.059Z,99687.44
2023-08-02T06:00:16.727Z,99686.28
2023-08-02T06:00:48.567Z,99690.47
2023-08-02T06:01:20.477Z,99693.94
2023-08-02T06:01:52.356Z,99688.31
2023-08-02T06:02:24.199Z,99691.13
2023-08-02T06:02:56.137Z,99696.09
2023-08-02T06:03:28.066Z,99700.09
2023-08-02T06:04:00.971Z,99701.44
2023-08-02T06:04:37.248Z,99692.41
2023-08-02T06:05:09.330Z,99694.72
2023-08-02T06:05:41.217Z,99694.56
2023-08-02T06:06:13.182Z,99701.66
2023-08-02T06:06:45.052Z,99698.03
2023-08-02T06:07:16.918Z,99701.53
2023-08-02T06:07:48.789Z,99696.09
2023-08-02T06:08:20.626Z,99702.88
2023-08-02T06:08:52.429Z,99694.63
2023-08-02T06:09:24.224Z,99699.91
2023-08-02T06:09:56.034Z,99703.25
2023-08-02T06:10:27.848Z,99706.56
2023-08-02T06:11:02.299Z,99706.25
2023-08-02T06:11:34.254Z,99699.84
2023-08-02T06:12:06.568Z,99699.00
2023-08-02T06:12:38.467Z,99701.50
2023-08-02T06:13:10.269Z,99705.63
2023-08-02T06:13:42.083Z,99706.13
2023-08-02T06:14:14.785Z,99702.66
2023-08-02T06:14:46.620Z,99703.97
2023-08-02T06:15:18.484Z,99698.84
2023-08-02T06:15:50.635Z,99697.88
2023-08-02T06:16:24.046Z,99696.06
2023-08-02T06:16:55.943Z,99694.25
2023-08-02T06:17:27.904Z,99701.03
2023-08-02T06:17:59.810Z,99695.75
2023-08-02T06:18:31.695Z,99692.25
2023-08-02T06:19:03.514Z,99698.53
2023-08-02T06:19:35.347Z,99699.22
2023-08-02T06:20:08.267Z,99698.75
2023-08-02T06:20:40.096Z,99698.63
2023-08-02T06:21:11.923Z,99696.94
2023-08-02T06:21:44.002Z,99697.91